sensor_id;sensor_type;location;lat;lon;timestamp;pressure;altitude;pressure_sealevel;temperature;humidity
16461;BME280;8341;42.048;24.650;2023-07-20T00:00:16;96860.59;;;27.82;43.30
16461;BME280;8341;42.048;24.650;2023-07-20T00:02:43;96854.25;;;27.82;43.29
16461;BME280;8341;42.048;24.650;2023-07-20T00:05:12;96857.53;;;27.78;43.35
16461;BME280;8341;42.048;24.650;2023-07-20T00:07:39;96875.00;;;27.88;43.64
16461;BME280;8341;42.048;24.650;2023-07-20T00:10:07;96866.44;;;27.86;44.27
16461;BME280;8341;42.048;24.650;2023-07-20T00:12:34;96860.84;;;27.86;44.43
16461;BME280;8341;42.048;24.650;2023-07-20T00:15:01;96855.53;;;27.90;44.10
16461;BME280;8341;42.048;24.650;2023-07-20T00:17:28;96858.31;;;27.90;44.19
16461;BME280;8341;42.048;24.650;2023-07-20T00:19:55;96855.41;;;27.88;44.57
16461;BME280;8341;42.048;24.650;2023-07-20T00:22:24;96847.38;;;27.94;44.50
16461;BME280;8341;42.048;24.650;2023-07-20T00:24:51;96841.50;;;27.90;44.62
16461;BME280;8341;42.048;24.650;2023-07-20T00:27:18;96833.38;;;27.94;44.68
16461;BME280;8341;42.048;24.650;2023-07-20T00:29:45;96830.38;;;28.02;44.50
16461;BME280;8341;42.048;24.650;2023-07-20T00:32:12;96828.16;;;28.01;44.26
16461;BME280;8341;42.048;24.650;2023-07-20T00:34:39;96812.25;;;28.03;44.54
16461;BME280;8341;42.048;24.650;2023-07-20T00:37:06;96816.56;;;28.16;44.39
16461;BME280;8341;42.048;24.650;2023-07-20T00:39:35;96806.97;;;28.19;44.15
16461;BME280;8341;42.048;24.650;2023-07-20T00:42:02;96799.63;;;28.14;44.13
16461;BME280;8341;42.048;24.650;2023-07-20T00:44:29;96782.31;;;28.17;44.33
16461;BME280;8341;42.048;24.650;2023-07-20T00:46:56;96765.56;;;28.08;44.34
16461;BME280;8341;42.048;24.650;2023-07-20T00:49:23;96771.25;;;28.19;43.96
16461;BME280;8341;42.048;24.650;2023-07-20T00:51:50;96767.44;;;28.15;44.63
16461;BME280;8341;42.048;24.650;2023-07-20T00:54:18;96774.53;;;28.16;44.09
16461;BME280;8341;42.048;24.650;2023-07-20T00:56:47;96773.03;;;28.15;44.47
16461;BME280;8341;42.048;24.650;2023-07-20T00:59:14;96773.25;;;28.07;44.67
16461;BME280;8341;42.048;24.650;2023-07-20T01:01:41;96777.13;;;27.81;45.31
16461;BME280;8341;42.048;24.650;2023-07-20T01:04:08;96776.78;;;27.86;45.29
16461;BME280;8341;42.048;24.650;2023-07-20T01:06:41;96791.19;;;27.92;45.28
16461;BME280;8341;42.048;24.650;2023-07-20T01:09:13;96781.66;;;27.86;44.97
16461;BME280;8341;42.048;24.650;2023-07-20T01:11:49;96764.91;;;27.76;45.45
16461;BME280;8341;42.048;24.650;2023-07-20T01:14:20;96785.13;;;27.75;45.85
16461;BME280;8341;42.048;24.650;2023-07-20T01:16:47;96777.72;;;27.79;46.27
16461;BME280;8341;42.048;24.650;2023-07-20T01:19:15;96765.19;;;27.80;45.94
16461;BME280;8341;42.048;24.650;2023-07-20T01:21:47;96760.69;;;27.87;45.75
16461;BME280;8341;42.048;24.650;2023-07-20T01:24:54;96751.41;;;27.84;45.95
16461;BME280;8341;42.048;24.650;2023-07-20T01:27:55;96748.38;;;27.80;45.91
16461;BME280;8341;42.048;24.650;2023-07-20T01:30:45;96741.06;;;27.66;46.17
16461;BME280;8341;42.048;24.650;2023-07-20T01:33:19;96733.28;;;27.64;46.29
16461;BME280;8341;42.048;24.650;2023-07-20T01:35:50;96728.34;;;27.74;46.44
16461;BME280;8341;42.048;24.650;2023-07-20T01:38:18;96725.50;;;27.63;46.45
16461;BME280;8341;42.048;24.650;2023-07-20T01:40:46;96722.94;;;27.67;46.31
16461;BME280;8341;42.048;24.650;2023-07-20T01:43:14;96723.41;;;27.63;46.41
16461;BME280;8341;42.048;24.650;2023-07-20T01:45:41;96724.47;;;27.58;46.38
16461;BME280;8341;42.048;24.650;2023-07-20T01:48:08;96726.34;;;27.65;46.81
16461;BME280;8341;42.048;24.650;2023-07-20T01:50:37;96712.34;;;27.65;47.02
16461;BME280;8341;42.048;24.650;2023-07-20T01:53:04;96713.25;;;27.58;46.46
16461;BME280;8341;42.048;24.650;2023-07-20T01:55:31;96710.88;;;27.43;47.18
16461;BME280;8341;42.048;24.650;2023-07-20T01:57:58;96714.69;;;27.48;46.94
16461;BME280;8341;42.048;24.650;2023-07-20T02:00:25;96718.94;;;27.49;46.88
16461;BME280;8341;42.048;24.650;2023-07-20T02:02:52;96706.31;;;27.38;47.03
16461;BME280;8341;42.048;24.650;2023-07-20T02:05:19;96725.09;;;27.26;47.28
16461;BME280;8341;42.048;24.650;2023-07-20T02:07:48;96721.97;;;27.31;47.83
16461;BME280;8341;42.048;24.650;2023-07-20T02:10:15;96731.88;;;27.23;47.81
16461;BME280;8341;42.048;24.650;2023-07-20T02:12:42;96722.53;;;27.09;48.14
16461;BME280;8341;42.048;24.650;2023-07-20T02:15:10;96735.75;;;27.18;47.85
16461;BME280;8341;42.048;24.650;2023-07-20T02:17:38;96742.25;;;27.11;48.31
16461;BME280;8341;42.048;24.650;2023-07-20T02:20:07;96758.13;;;27.18;47.56
16461;BME280;8341;42.048;24.650;2023-07-20T02:22:35;96743.94;;;27.25;47.53
16461;BME280;8341;42.048;24.650;2023-07-20T02:25:06;96747.63;;;27.28;47.34
16461;BME280;8341;42.048;24.650;2023-07-20T02:27:33;96749.84;;;27.29;46.99
16461;BME280;8341;42.048;24.650;2023-07-20T02:30:01;96750.38;;;27.38;47.14
16461;BME280;8341;42.048;24.650;2023-07-20T02:32:29;96749.03;;;27.39;47.31
16461;BME280;8341;42.048;24.650;2023-07-20T02:34:57;96754.06;;;27.40;47.10
16461;BME280;8341;42.048;24.650;2023-07-20T02:37:24;96758.34;;;27.41;47.34
16461;BME280;8341;42.048;24.650;2023-07-20T02:39:51;96758.22;;;27.39;47.16
16461;BME280;8341;42.048;24.650;2023-07-20T02:42:19;96745.19;;;27.13;47.83
16461;BME280;8341;42.048;24.650;2023-07-20T02:44:48;96735.00;;;26.87;48.98
16461;BME280;8341;42.048;24.650;2023-07-20T02:47:15;96747.63;;;26.97;48.89
16461;BME280;8341;42.048;24.650;2023-07-20T02:49:42;96743.06;;;26.92;48.99
16461;BME280;8341;42.048;24.650;2023-07-20T02:52:09;96750.72;;;26.92;48.45
16461;BME280;8341;42.048;24.650;2023-07-20T02:54:36;96746.03;;;26.85;49.29
16461;BME280;8341;42.048;24.650;2023-07-20T02:57:04;96735.88;;;26.89;49.28
16461;BME280;8341;42.048;24.650;2023-07-20T02:59:32;96741.16;;;26.95;48.72
16461;BME280;8341;42.048;24.650;2023-07-20T03:02:00;96737.78;;;26.96;48.81
16461;BME280;8341;42.048;24.650;2023-07-20T03:04:27;96742.50;;;26.94;48.79
16461;BME280;8341;42.048;24.650;2023-07-20T03:06:54;96746.59;;;26.93;49.04
16461;BME280;8341;42.048;24.650;2023-07-20T03:09:21;96748.81;;;26.94;48.57
16461;BME280;8341;42.048;24.650;2023-07-20T03:11:49;96745.56;;;26.98;48.87
16461;BME280;8341;42.048;24.650;2023-07-20T03:14:16;96738.91;;;27.03;48.58
16461;BME280;8341;42.048;24.650;2023-07-20T03:16:45;96744.50;;;27.03;48.51
16461;BME280;8341;42.048;24.650;2023-07-20T03:19:12;96736.09;;;27.03;48.58
16461;BME280;8341;42.048;24.650;2023-07-20T03:21:39;96735.78;;;27.08;48.49
16461;BME280;8341;42.048;24.650;2023-07-20T03:24:06;96732.53;;;27.12;48.18
16461;BME280;8341;42.048;24.650;2023-07-20T03:26:34;96723.22;;;27.19;48.04
16461;BME280;8341;42.048;24.650;2023-07-20T03:29:03;96737.03;;;27.26;47.78
16461;BME280;8341;42.048;24.650;2023-07-20T03:31:30;96730.81;;;27.28;47.42
16461;BME280;8341;42.048;24.650;2023-07-20T03:33:59;96730.81;;;27.28;47.00
16461;BME280;8341;42.048;24.650;2023-07-20T03:36:26;96724.28;;;27.35;47.10
16461;BME280;8341;42.048;24.650;2023-07-20T03:38:53;96728.69;;;27.38;47.33
16461;BME280;8341;42.048;24.650;2023-07-20T03:41:20;96687.88;;;27.14;47.36
16461;BME280;8341;42.048;24.650;2023-07-20T03:43:47;96712.56;;;27.27;47.57
16461;BME280;8341;42.048;24.650;2023-07-20T03:46:14;96717.75;;;27.21;48.19
16461;BME280;8341;42.048;24.650;2023-07-20T03:48:42;96718.56;;;27.33;47.74
16461;BME280;8341;42.048;24.650;2023-07-20T03:51:10;96718.16;;;27.27;47.50
16461;BME280;8341;42.048;24.650;2023-07-20T03:53:37;96716.94;;;27.40;47.48
16461;BME280;8341;42.048;24.650;2023-07-20T03:56:05;96707.31;;;27.43;47.29
16461;BME280;8341;42.048;24.650;2023-07-20T03:58:32;96692.75;;;27.44;47.51
16461;BME280;8341;42.048;24.650;2023-07-20T04:00:59;96714.22;;;27.51;47.43
16461;BME280;8341;42.048;24.650;2023-07-20T04:03:26;96713.88;;;27.57;47.15
16461;BME280;8341;42.048;24.650;2023-07-20T04:05:54;96653.25;;;27.19;46.76
16461;BME280;8341;42.048;24.650;2023-07-20T04:08:24;96696.66;;;27.51;47.16
16461;BME280;8341;42.048;24.650;2023-07-20T04:10:51;96718.75;;;27.77;46.73
16461;BME280;8341;42.048;24.650;2023-07-20T04:13:18;96726.81;;;27.83;47.43
16461;BME280;8341;42.048;24.650;2023-07-20T04:15:45;96721.94;;;27.83;47.56
16461;BME280;8341;42.048;24.650;2023-07-20T04:18:12;96720.47;;;27.82;47.48
16461;BME280;8341;42.048;24.650;2023-07-20T04:20:40;96724.88;;;27.85;48.07
16461;BME280;8341;42.048;24.650;2023-07-20T04:23:07;96666.78;;;27.44;47.67
16461;BME280;8341;42.048;24.650;2023-07-20T04:25:35;96718.56;;;27.96;47.40
16461;BME280;8341;42.048;24.650;2023-07-20T04:28:06;96723.28;;;28.04;47.63
16461;BME280;8341;42.048;24.650;2023-07-20T04:30:35;96728.13;;;28.92;45.38
16461;BME280;8341;42.048;24.650;2023-07-20T04:33:03;96732.53;;;29.18;44.87
16461;BME280;8341;42.048;24.650;2023-07-20T04:35:48;96734.25;;;29.58;42.94
16461;BME280;8341;42.048;24.650;2023-07-20T04:38:15;96714.00;;;29.48;42.87
16461;BME280;8341;42.048;24.650;2023-07-20T04:40:44;96739.06;;;29.92;42.33
16461;BME280;8341;42.048;24.650;2023-07-20T04:43:12;96736.50;;;30.21;41.99
16461;BME280;8341;42.048;24.650;2023-07-20T04:45:39;96675.97;;;29.95;42.00
16461;BME280;8341;42.048;24.650;2023-07-20T04:48:12;96722.00;;;30.38;41.63
16461;BME280;8341;42.048;24.650;2023-07-20T04:50:41;96737.81;;;30.57;42.60
16461;BME280;8341;42.048;24.650;2023-07-20T04:53:09;96738.75;;;30.62;41.83
16461;BME280;8341;42.048;24.650;2023-07-20T04:55:36;96717.72;;;30.63;41.79
16461;BME280;8341;42.048;24.650;2023-07-20T04:58:05;96667.56;;;30.59;40.91
16461;BME280;8341;42.048;24.650;2023-07-20T05:00:33;96739.44;;;31.40;40.12
16461;BME280;8341;42.048;24.650;2023-07-20T05:03:01;96736.59;;;31.81;39.03
16461;BME280;8341;42.048;24.650;2023-07-20T05:05:30;96731.66;;;31.95;38.79
16461;BME280;8341;42.048;24.650;2023-07-20T05:07:57;96718.19;;;32.07;37.94
16461;BME280;8341;42.048;24.650;2023-07-20T05:10:24;96693.13;;;31.99;38.14
16461;BME280;8341;42.048;24.650;2023-07-20T05:12:52;96756.19;;;32.06;39.47
16461;BME280;8341;42.048;24.650;2023-07-20T05:15:21;96745.38;;;31.87;39.19
16461;BME280;8341;42.048;24.650;2023-07-20T05:17:48;96719.50;;;31.63;40.17
16461;BME280;8341;42.048;24.650;2023-07-20T05:20:15;96650.19;;;30.90;40.04
16461;BME280;8341;42.048;24.650;2023-07-20T05:22:43;96708.22;;;31.09;40.22
16461;BME280;8341;42.048;24.650;2023-07-20T05:25:10;96713.16;;;30.83;41.76
16461;BME280;8341;42.048;24.650;2023-07-20T05:27:39;96695.84;;;30.75;41.71
16461;BME280;8341;42.048;24.650;2023-07-20T05:30:07;96738.38;;;30.67;41.22
16461;BME280;8341;42.048;24.650;2023-07-20T05:32:35;96715.84;;;29.92;42.09
16461;BME280;8341;42.048;24.650;2023-07-20T05:35:03;96667.72;;;29.37;42.60
16461;BME280;8341;42.048;24.650;2023-07-20T05:37:30;96688.13;;;29.38;42.91
16461;BME280;8341;42.048;24.650;2023-07-20T05:39:57;96719.22;;;29.18;43.96
16461;BME280;8341;42.048;24.650;2023-07-20T05:42:24;96709.09;;;28.90;44.50
16461;BME280;8341;42.048;24.650;2023-07-20T05:44:51;96696.69;;;28.49;46.03
16461;BME280;8341;42.048;24.650;2023-07-20T05:47:19;96710.50;;;28.56;46.29
16461;BME280;8341;42.048;24.650;2023-07-20T05:49:48;96714.22;;;28.38;47.14
16461;BME280;8341;42.048;24.650;2023-07-20T05:52:15;96701.91;;;28.31;47.60
16461;BME280;8341;42.048;24.650;2023-07-20T05:54:42;96709.63;;;28.42;47.56
16461;BME280;8341;42.048;24.650;2023-07-20T05:57:10;96713.91;;;28.55;46.66
16461;BME280;8341;42.048;24.650;2023-07-20T05:59:37;96704.50;;;28.39;47.50
16461;BME280;8341;42.048;24.650;2023-07-20T06:02:06;96683.53;;;28.40;47.61
16461;BME280;8341;42.048;24.650;2023-07-20T06:04:33;96655.78;;;28.23;47.68
16461;BME280;8341;42.048;24.650;2023-07-20T06:07:02;96691.72;;;28.59;46.43
16461;BME280;8341;42.048;24.650;2023-07-20T06:09:30;96689.94;;;28.75;46.73
16461;BME280;8341;42.048;24.650;2023-07-20T06:11:57;96693.72;;;28.80;46.64
16461;BME280;8341;42.048;24.650;2023-07-20T06:14:24;96687.84;;;29.10;46.18
16461;BME280;8341;42.048;24.650;2023-07-20T06:16:51;96684.19;;;29.08;46.17
16461;BME280;8341;42.048;24.650;2023-07-20T06:19:18;96689.34;;;29.35;46.19
16461;BME280;8341;42.048;24.650;2023-07-20T06:21:45;96686.63;;;29.37;44.74
16461;BME280;8341;42.048;24.650;2023-07-20T06:24:14;96679.03;;;29.51;44.77
16461;BME280;8341;42.048;24.650;2023-07-20T06:26:41;96647.31;;;29.25;44.75
16461;BME280;8341;42.048;24.650;2023-07-20T06:29:08;96683.25;;;29.75;43.99
16461;BME280;8341;42.048;24.650;2023-07-20T06:31:36;96662.16;;;29.51;43.99
16461;BME280;8341;42.048;24.650;2023-07-20T06:34:03;96675.53;;;29.75;43.62
16461;BME280;8341;42.048;24.650;2023-07-20T06:36:30;96676.72;;;29.96;43.61
16461;BME280;8341;42.048;24.650;2023-07-20T06:38:58;96654.91;;;29.71;43.39
16461;BME280;8341;42.048;24.650;2023-07-20T06:41:26;96692.72;;;29.93;43.54
16461;BME280;8341;42.048;24.650;2023-07-20T06:43:53;96687.56;;;30.01;43.92
16461;BME280;8341;42.048;24.650;2023-07-20T06:46:24;96688.25;;;30.13;44.17
16461;BME280;8341;42.048;24.650;2023-07-20T06:48:51;96689.72;;;30.14;43.38
16461;BME280;8341;42.048;24.650;2023-07-20T06:51:19;96660.28;;;29.67;43.39
16461;BME280;8341;42.048;24.650;2023-07-20T06:53:46;96688.22;;;29.88;43.65
16461;BME280;8341;42.048;24.650;2023-07-20T06:56:14;96686.38;;;30.18;44.28
16461;BME280;8341;42.048;24.650;2023-07-20T06:58:42;96686.75;;;30.12;43.66
16461;BME280;8341;42.048;24.650;2023-07-20T07:01:09;96685.66;;;30.17;43.92
16461;BME280;8341;42.048;24.650;2023-07-20T07:03:37;96692.34;;;30.24;43.34
16461;BME280;8341;42.048;24.650;2023-07-20T07:06:04;96692.97;;;30.22;44.15
16461;BME280;8341;42.048;24.650;2023-07-20T07:08:31;96692.06;;;30.31;42.96
16461;BME280;8341;42.048;24.650;2023-07-20T07:10:58;96694.63;;;30.39;42.70
16461;BME280;8341;42.048;24.650;2023-07-20T07:13:25;96696.34;;;30.32;42.66
16461;BME280;8341;42.048;24.650;2023-07-20T07:15:54;96682.50;;;30.36;42.63
16461;BME280;8341;42.048;24.650;2023-07-20T07:18:21;96680.66;;;30.41;42.19
16461;BME280;8341;42.048;24.650;2023-07-20T07:20:52;96686.66;;;30.61;43.01
16461;BME280;8341;42.048;24.650;2023-07-20T07:23:19;96671.34;;;30.77;42.33
16461;BME280;8341;42.048;24.650;2023-07-20T07:25:47;96676.56;;;30.83;42.21
16461;BME280;8341;42.048;24.650;2023-07-20T07:28:15;96671.00;;;30.96;40.92
16461;BME280;8341;42.048;24.650;2023-07-20T07:30:42;96680.69;;;31.07;41.25
16461;BME280;8341;42.048;24.650;2023-07-20T07:33:11;96683.91;;;31.29;40.99
16461;BME280;8341;42.048;24.650;2023-07-20T07:35:39;96686.31;;;31.34;39.67
16461;BME280;8341;42.048;24.650;2023-07-20T07:38:06;96676.19;;;31.43;39.63
16461;BME280;8341;42.048;24.650;2023-07-20T07:40:33;96670.38;;;31.25;40.39
16461;BME280;8341;42.048;24.650;2023-07-20T07:43:00;96643.44;;;31.09;39.82
16461;BME280;8341;42.048;24.650;2023-07-20T07:45:27;96652.00;;;31.24;39.98
16461;BME280;8341;42.048;24.650;2023-07-20T07:47:54;96616.53;;;30.92;40.25
16461;BME280;8341;42.048;24.650;2023-07-20T07:50:23;96669.91;;;31.31;40.59
16461;BME280;8341;42.048;24.650;2023-07-20T07:52:50;96626.53;;;31.09;39.41
16461;BME280;8341;42.048;24.650;2023-07-20T07:55:18;96677.97;;;31.64;39.25
16461;BME280;8341;42.048;24.650;2023-07-20T07:57:45;96676.06;;;31.54;38.74
16461;BME280;8341;42.048;24.650;2023-07-20T08:00:14;96683.88;;;31.70;39.14
16461;BME280;8341;42.048;24.650;2023-07-20T08:02:44;96676.88;;;31.71;38.87
16461;BME280;8341;42.048;24.650;2023-07-20T08:05:12;96669.31;;;31.89;38.72
16461;BME280;8341;42.048;24.650;2023-07-20T08:07:41;96669.16;;;31.71;38.35
16461;BME280;8341;42.048;24.650;2023-07-20T08:10:09;96677.41;;;31.67;38.81
16461;BME280;8341;42.048;24.650;2023-07-20T08:12:36;96670.75;;;31.90;38.38
16461;BME280;8341;42.048;24.650;2023-07-20T08:15:04;96674.09;;;32.00;37.64
16461;BME280;8341;42.048;24.650;2023-07-20T08:17:31;96679.50;;;32.09;37.83
16461;BME280;8341;42.048;24.650;2023-07-20T08:19:58;96678.44;;;32.16;37.30
16461;BME280;8341;42.048;24.650;2023-07-20T08:22:26;96683.97;;;32.14;37.38
16461;BME280;8341;42.048;24.650;2023-07-20T08:24:55;96666.88;;;32.26;36.97
16461;BME280;8341;42.048;24.650;2023-07-20T08:27:22;96688.63;;;32.53;36.22
16461;BME280;8341;42.048;24.650;2023-07-20T08:29:49;96671.88;;;32.57;37.03
16461;BME280;8341;42.048;24.650;2023-07-20T08:32:16;96690.09;;;32.85;36.32
16461;BME280;8341;42.048;24.650;2023-07-20T08:34:43;96699.03;;;32.79;35.93
16461;BME280;8341;42.048;24.650;2023-07-20T08:37:11;96699.59;;;32.76;36.11
16461;BME280;8341;42.048;24.650;2023-07-20T08:39:38;96692.75;;;32.81;36.18
16461;BME280;8341;42.048;24.650;2023-07-20T08:42:07;96683.31;;;32.45;36.42
16461;BME280;8341;42.048;24.650;2023-07-20T08:44:36;96698.47;;;32.83;35.75
16461;BME280;8341;42.048;24.650;2023-07-20T08:47:06;96696.69;;;32.90;35.39
16461;BME280;8341;42.048;24.650;2023-07-20T08:49:35;96675.72;;;32.95;35.01
16461;BME280;8341;42.048;24.650;2023-07-20T08:52:03;96685.25;;;33.03;35.18
16461;BME280;8341;42.048;24.650;2023-07-20T08:54:31;96681.13;;;33.37;35.16
16461;BME280;8341;42.048;24.650;2023-07-20T08:57:02;96685.59;;;33.58;34.49
16461;BME280;8341;42.048;24.650;2023-07-20T08:59:31;96686.41;;;33.61;35.44
16461;BME280;8341;42.048;24.650;2023-07-20T09:01:59;96689.16;;;33.59;34.06
16461;BME280;8341;42.048;24.650;2023-07-20T09:04:26;96678.28;;;33.86;34.36
16461;BME280;8341;42.048;24.650;2023-07-20T09:07:01;96651.94;;;33.99;34.24
16461;BME280;8341;42.048;24.650;2023-07-20T09:09:29;96656.94;;;34.19;33.19
16461;BME280;8341;42.048;24.650;2023-07-20T09:11:56;96651.28;;;34.19;32.63
16461;BME280;8341;42.048;24.650;2023-07-20T09:14:23;96611.66;;;34.01;32.90
16461;BME280;8341;42.048;24.650;2023-07-20T09:16:53;96644.41;;;34.24;32.79
16461;BME280;8341;42.048;24.650;2023-07-20T09:19:21;96651.06;;;34.50;34.37
16461;BME280;8341;42.048;24.650;2023-07-20T09:21:49;96648.31;;;34.52;32.38
16461;BME280;8341;42.048;24.650;2023-07-20T09:24:18;96653.53;;;34.40;32.67
16461;BME280;8341;42.048;24.650;2023-07-20T09:26:46;96643.13;;;34.46;32.17
16461;BME280;8341;42.048;24.650;2023-07-20T09:29:14;96637.56;;;34.66;31.86
16461;BME280;8341;42.048;24.650;2023-07-20T09:31:59;96632.78;;;34.53;32.33
16461;BME280;8341;42.048;24.650;2023-07-20T09:34:28;96633.84;;;34.81;32.48
16461;BME280;8341;42.048;24.650;2023-07-20T09:36:56;96634.91;;;35.09;31.29
16461;BME280;8341;42.048;24.650;2023-07-20T09:39:23;96624.25;;;35.30;31.62
16461;BME280;8341;42.048;24.650;2023-07-20T09:41:50;96623.50;;;35.49;30.51
16461;BME280;8341;42.048;24.650;2023-07-20T09:44:18;96623.72;;;35.55;30.60
16461;BME280;8341;42.048;24.650;2023-07-20T09:46:45;96630.53;;;35.48;29.86
16461;BME280;8341;42.048;24.650;2023-07-20T09:49:17;96605.94;;;35.33;30.81
16461;BME280;8341;42.048;24.650;2023-07-20T09:51:44;96581.75;;;34.90;30.97
16461;BME280;8341;42.048;24.650;2023-07-20T09:54:13;96620.63;;;35.27;30.78
16461;BME280;8341;42.048;24.650;2023-07-20T09:56:40;96616.59;;;35.12;30.59
16461;BME280;8341;42.048;24.650;2023-07-20T09:59:08;96605.53;;;35.20;31.00
16461;BME280;8341;42.048;24.650;2023-07-20T10:01:36;96599.69;;;35.16;30.27
16461;BME280;8341;42.048;24.650;2023-07-20T10:04:07;96609.41;;;35.31;31.45
16461;BME280;8341;42.048;24.650;2023-07-20T10:06:39;96601.59;;;35.51;30.61
16461;BME280;8341;42.048;24.650;2023-07-20T10:09:10;96570.25;;;35.47;30.10
16461;BME280;8341;42.048;24.650;2023-07-20T10:11:45;96567.88;;;35.83;30.69
16461;BME280;8341;42.048;24.650;2023-07-20T10:14:19;96577.78;;;36.04;29.10
16461;BME280;8341;42.048;24.650;2023-07-20T10:16:50;96577.53;;;36.19;29.48
16461;BME280;8341;42.048;24.650;2023-07-20T10:19:23;96577.97;;;35.88;29.77
16461;BME280;8341;42.048;24.650;2023-07-20T10:22:00;96528.06;;;35.57;28.49
16461;BME280;8341;42.048;24.650;2023-07-20T10:24:31;96529.31;;;35.52;29.10
16461;BME280;8341;42.048;24.650;2023-07-20T10:26:59;96556.38;;;35.77;29.06
16461;BME280;8341;42.048;24.650;2023-07-20T10:29:26;96551.44;;;36.01;28.60
16461;BME280;8341;42.048;24.650;2023-07-20T10:31:55;96557.13;;;36.01;28.76
16461;BME280;8341;42.048;24.650;2023-07-20T10:34:22;96537.88;;;35.76;29.11
16461;BME280;8341;42.048;24.650;2023-07-20T10:36:52;96520.97;;;35.80;28.48
16461;BME280;8341;42.048;24.650;2023-07-20T10:39:26;96551.94;;;36.17;28.55
16461;BME280;8341;42.048;24.650;2023-07-20T10:42:00;96528.00;;;36.01;28.00
16461;BME280;8341;42.048;24.650;2023-07-20T10:44:29;96549.34;;;36.25;27.99
16461;BME280;8341;42.048;24.650;2023-07-20T10:46:59;96556.03;;;36.36;28.08
16461;BME280;8341;42.048;24.650;2023-07-20T10:49:27;96550.72;;;36.24;28.26
16461;BME280;8341;42.048;24.650;2023-07-20T10:51:58;96552.91;;;36.50;28.15
16461;BME280;8341;42.048;24.650;2023-07-20T10:54:48;96549.50;;;36.55;27.98
16461;BME280;8341;42.048;24.650;2023-07-20T10:57:24;96533.97;;;36.58;28.37
16461;BME280;8341;42.048;24.650;2023-07-20T10:59:51;96547.09;;;36.22;27.92
16461;BME280;8341;42.048;24.650;2023-07-20T11:02:18;96535.50;;;36.37;27.75
16461;BME280;8341;42.048;24.650;2023-07-20T11:04:47;96539.50;;;36.28;27.64
16461;BME280;8341;42.048;24.650;2023-07-20T11:07:17;96521.38;;;36.16;27.62
16461;BME280;8341;42.048;24.650;2023-07-20T11:09:45;96536.28;;;36.40;27.70
16461;BME280;8341;42.048;24.650;2023-07-20T11:12:16;96542.38;;;36.54;27.64
16461;BME280;8341;42.048;24.650;2023-07-20T11:14:53;96542.00;;;36.66;26.99
16461;BME280;8341;42.048;24.650;2023-07-20T11:17:28;96532.00;;;36.90;27.58
16461;BME280;8341;42.048;24.650;2023-07-20T11:19:55;96530.69;;;37.21;27.38
16461;BME280;8341;42.048;24.650;2023-07-20T11:22:23;96530.59;;;37.17;27.43
16461;BME280;8341;42.048;24.650;2023-07-20T11:24:50;96457.19;;;36.82;25.91
16461;BME280;8341;42.048;24.650;2023-07-20T11:27:18;96515.91;;;36.99;25.50
16461;BME280;8341;42.048;24.650;2023-07-20T11:29:47;96512.25;;;36.69;25.45
16461;BME280;8341;42.048;24.650;2023-07-20T11:32:20;96504.44;;;36.69;25.42
16461;BME280;8341;42.048;24.650;2023-07-20T11:34:47;96507.09;;;36.37;25.75
16461;BME280;8341;42.048;24.650;2023-07-20T11:37:15;96511.28;;;36.60;25.74
16461;BME280;8341;42.048;24.650;2023-07-20T11:39:42;96490.63;;;36.58;25.80
16461;BME280;8341;42.048;24.650;2023-07-20T11:42:09;96495.94;;;36.69;26.71
16461;BME280;8341;42.048;24.650;2023-07-20T11:44:38;96509.06;;;37.08;25.90
16461;BME280;8341;42.048;24.650;2023-07-20T11:47:07;96511.31;;;36.88;26.01
16461;BME280;8341;42.048;24.650;2023-07-20T11:49:37;96506.41;;;36.90;25.94
16461;BME280;8341;42.048;24.650;2023-07-20T11:52:06;96519.13;;;37.13;25.98
16461;BME280;8341;42.048;24.650;2023-07-20T11:54:34;96512.16;;;36.92;25.83
16461;BME280;8341;42.048;24.650;2023-07-20T11:57:01;96525.13;;;36.97;26.10
16461;BME280;8341;42.048;24.650;2023-07-20T11:59:28;96510.66;;;36.89;25.72
16461;BME280;8341;42.048;24.650;2023-07-20T12:01:57;96505.63;;;36.88;25.69
16461;BME280;8341;42.048;24.650;2023-07-20T12:04:25;96500.97;;;37.26;25.70
16461;BME280;8341;42.048;24.650;2023-07-20T12:06:53;96476.72;;;37.23;25.98
16461;BME280;8341;42.048;24.650;2023-07-20T12:09:20;96432.84;;;36.75;25.94
16461;BME280;8341;42.048;24.650;2023-07-20T12:11:49;96492.00;;;37.38;26.90
16461;BME280;8341;42.048;24.650;2023-07-20T12:14:16;96474.13;;;37.33;25.64
16461;BME280;8341;42.048;24.650;2023-07-20T12:16:43;96480.31;;;37.53;26.31
16461;BME280;8341;42.048;24.650;2023-07-20T12:19:12;96458.91;;;37.50;26.16
16461;BME280;8341;42.048;24.650;2023-07-20T12:21:40;96440.38;;;36.92;26.96
16461;BME280;8341;42.048;24.650;2023-07-20T12:24:08;96403.84;;;36.80;26.45
16461;BME280;8341;42.048;24.650;2023-07-20T12:26:36;96458.41;;;37.00;26.34
16461;BME280;8341;42.048;24.650;2023-07-20T12:29:03;96458.00;;;36.86;27.50
16461;BME280;8341;42.048;24.650;2023-07-20T12:31:34;96450.25;;;36.89;27.94
16461;BME280;8341;42.048;24.650;2023-07-20T12:34:02;96440.00;;;36.78;27.28
16461;BME280;8341;42.048;24.650;2023-07-20T12:36:31;96428.00;;;36.52;27.95
16461;BME280;8341;42.048;24.650;2023-07-20T12:38:58;96396.50;;;36.43;27.74
16461;BME280;8341;42.048;24.650;2023-07-20T12:41:26;96423.91;;;36.33;27.30
16461;BME280;8341;42.048;24.650;2023-07-20T12:43:53;96421.44;;;36.21;27.06
16461;BME280;8341;42.048;24.650;2023-07-20T12:46:23;96423.78;;;36.29;27.10
16461;BME280;8341;42.048;24.650;2023-07-20T12:48:50;96434.06;;;36.42;27.72
16461;BME280;8341;42.048;24.650;2023-07-20T12:51:17;96433.09;;;36.57;28.49
16461;BME280;8341;42.048;24.650;2023-07-20T12:53:45;96427.31;;;36.27;27.93
16461;BME280;8341;42.048;24.650;2023-07-20T12:56:12;96422.91;;;36.48;27.42
16461;BME280;8341;42.048;24.650;2023-07-20T12:58:39;96429.50;;;36.82;27.64
16461;BME280;8341;42.048;24.650;2023-07-20T13:01:05;96428.91;;;36.88;27.61
16461;BME280;8341;42.048;24.650;2023-07-20T13:03:32;96429.69;;;37.18;27.49
16461;BME280;8341;42.048;24.650;2023-07-20T13:05:59;96425.63;;;37.27;27.25